Corrigin, Australia
Current Conditions -  °F | °C
As of 1:34 AM on Tuesday 25 Nov 2014 (Local Time) from YPPH Reporting Station
Clear Clear  
Wind Chill: 64°   Ceiling: Unl
Heat Index: 64°   Visibility: 6mi
Dew Point: 41°   Wind: 18mph
Humidity: 42%   Direction: 100°E
Pressure: 30.03"   Gusts: 30mph
Location:  32.33°S, 117.87°E
Report Text: YPPH 241734Z 10016G26KT CAVOK 18/05 Q1017
Loading
Personal Weather Stations






























Interactive Weather Map New forecast layout! Learn more

10-Day Weather Forecast

Advertisements
Track Severe Weather on mobile